Time;durP1;ratioP1;P1;durP2;ratioP2;P2;SDS_P1;SDS_P2;PMS_P1;PMS_P2;Temp;Humidity;BMP_temperature;BMP_pressure;BME280_temperature;BME280_humidity;BME280_pressure;Samples;Min_cycle;Max_cycle;Signal;HPM_P1;HPM_P2
2022/07/31 00:00:37;;;;;;;9.47;7.67;;;21.00;71.30;;;;;;5025593;28;21056;-78
2022/07/31 00:03:06;;;;;;;10.57;7.80;;;21.00;71.30;;;;;;5026159;28;20456;-78
2022/07/31 00:05:35;;;;;;;9.77;7.60;;;20.90;71.30;;;;;;5026541;28;21351;-78
2022/07/31 00:08:08;;;;;;;11.83;7.43;;;20.90;71.50;;;;;;5010483;28;20470;-77
2022/07/31 00:10:36;;;;;;;9.27;6.53;;;20.90;71.60;;;;;;5025823;28;20577;-79
2022/07/31 00:13:04;;;;;;;10.40;7.20;;;20.90;71.70;;;;;;5022628;28;20476;-78
2022/07/31 00:15:32;;;;;;;8.00;7.07;;;20.90;71.70;;;;;;5024462;28;20467;-77
2022/07/31 00:18:00;;;;;;;7.80;5.90;;;20.80;71.70;;;;;;5025302;28;20473;-78
2022/07/31 00:20:30;;;;;;;9.60;6.33;;;20.80;71.70;;;;;;5024799;28;20459;-78
2022/07/31 00:22:58;;;;;;;10.30;6.93;;;20.80;71.60;;;;;;5026305;28;20469;-78
2022/07/31 00:25:26;;;;;;;8.90;6.97;;;20.80;71.70;;;;;;5023685;28;20453;-78
2022/07/31 00:27:54;;;;;;;8.20;6.63;;;20.70;71.60;;;;;;5033685;28;20552;-78
2022/07/31 00:30:22;;;;;;;8.77;6.77;;;20.70;71.60;;;;;;5030562;28;21053;-78
2022/07/31 00:32:50;;;;;;;9.43;7.07;;;20.60;71.60;;;;;;5026293;28;20467;-77
2022/07/31 00:35:19;;;;;;;9.57;7.10;;;20.60;71.70;;;;;;5025359;28;20997;-78
2022/07/31 00:37:48;;;;;;;9.30;6.97;;;20.60;71.80;;;;;;5026111;28;20465;-78
2022/07/31 00:40:22;;;;;;;12.07;7.50;;;20.50;71.80;;;;;;5011855;28;20560;-77
2022/07/31 00:42:50;;;;;;;12.57;7.93;;;20.50;71.80;;;;;;5024615;28;20824;-78
2022/07/31 00:45:18;;;;;;;10.60;8.63;;;20.50;71.90;;;;;;5026570;28;20459;-77
2022/07/31 00:47:52;;;;;;;8.70;7.27;;;20.40;72.00;;;;;;5027328;28;20980;-79
2022/07/31 00:50:22;;;;;;;13.20;7.40;;;20.40;72.00;;;;;;5026149;28;20492;-78
2022/07/31 00:52:52;;;;;;;8.90;6.80;;;20.40;72.00;;;;;;5027839;28;20827;-78
2022/07/31 00:55:21;;;;;;;8.10;6.40;;;20.40;72.20;;;;;;5031653;28;20476;-78
2022/07/31 00:57:49;;;;;;;10.33;7.47;;;20.40;72.20;;;;;;5027941;28;20459;-78
2022/07/31 01:00:17;;;;;;;11.47;7.30;;;20.40;72.20;;;;;;5026090;28;20480;-78
2022/07/31 01:02:45;;;;;;;16.70;7.20;;;20.40;72.20;;;;;;5032316;28;20833;-78
2022/07/31 01:05:14;;;;;;;10.67;7.20;;;20.30;72.20;;;;;;5015800;28;20834;-78
2022/07/31 01:07:42;;;;;;;10.60;7.23;;;20.40;72.20;;;;;;5004900;28;20490;-78
2022/07/31 01:10:17;;;;;;;11.47;7.30;;;20.30;72.20;;;;;;5029846;28;20479;-79
2022/07/31 01:12:54;;;;;;;8.47;6.70;;;20.30;72.20;;;;;;5027315;28;20461;-78
2022/07/31 01:15:23;;;;;;;9.37;7.57;;;20.30;72.20;;;;;;5018642;28;20479;-79
2022/07/31 01:17:53;;;;;;;10.73;7.67;;;20.20;72.00;;;;;;5030928;28;20459;-77
2022/07/31 01:20:22;;;;;;;9.00;7.10;;;20.10;72.10;;;;;;5032988;28;20493;-78
2022/07/31 01:23:12;;;;;;;11.30;7.70;;;20.10;72.30;;;;;;5020675;28;20984;-78
2022/07/31 01:25:59;;;;;;;9.57;8.00;;;20.10;72.40;;;;;;5038208;28;20470;-78
2022/07/31 01:29:06;;;;;;;10.30;7.67;;;20.10;72.50;;;;;;5011956;28;20864;-78
2022/07/31 01:31:36;;;;;;;11.10;8.07;;;20.10;72.50;;;;;;5025843;28;20514;-78
2022/07/31 01:34:11;;;;;;;13.43;7.30;;;20.10;72.50;;;;;;5011106;28;20843;-78
2022/07/31 01:36:48;;;;;;;8.73;7.43;;;20.10;72.60;;;;;;5015031;28;20482;-78
2022/07/31 01:39:17;;;;;;;10.90;6.97;;;20.10;72.60;;;;;;5012320;28;20569;-78
2022/07/31 01:41:48;;;;;;;10.93;7.87;;;20.10;72.60;;;;;;5029208;28;20463;-78
2022/07/31 01:44:18;;;;;;;10.53;8.00;;;20.10;72.60;;;;;;5012486;28;20462;-78
2022/07/31 01:46:47;;;;;;;13.03;7.70;;;20.10;72.60;;;;;;5026452;28;20483;-78
2022/07/31 01:49:18;;;;;;;9.10;7.50;;;20.10;72.60;;;;;;5014775;28;20489;-78
2022/07/31 01:51:48;;;;;;;12.70;7.33;;;20.00;72.60;;;;;;5015427;28;21394;-79
2022/07/31 01:54:20;;;;;;;8.80;7.33;;;20.00;72.70;;;;;;5014896;28;20486;-78
2022/07/31 01:56:49;;;;;;;12.50;8.30;;;20.00;72.60;;;;;;5018883;28;20486;-78
2022/07/31 01:59:21;;;;;;;9.53;7.20;;;20.00;72.70;;;;;;5028597;28;20489;-78
2022/07/31 02:02:12;;;;;;;10.03;8.00;;;19.90;72.70;;;;;;5022250;28;20492;-78
2022/07/31 02:04:40;;;;;;;9.60;7.60;;;19.90;72.70;;;;;;5011147;28;20471;-78
2022/07/31 02:07:09;;;;;;;9.87;7.33;;;19.90;72.70;;;;;;5033846;28;20450;-78
2022/07/31 02:09:39;;;;;;;9.50;7.80;;;19.80;72.90;;;;;;5014988;28;21006;-78
2022/07/31 02:12:29;;;;;;;8.80;7.63;;;19.80;73.00;;;;;;5031151;28;20529;-78
2022/07/31 02:15:06;;;;;;;11.03;8.00;;;19.80;73.00;;;;;;5019642;28;20511;-78
2022/07/31 02:17:36;;;;;;;10.70;7.67;;;19.80;73.00;;;;;;5016485;28;20455;-78
2022/07/31 02:20:23;;;;;;;11.93;7.10;;;19.70;73.10;;;;;;5024032;28;20482;-78
2022/07/31 02:22:56;;;;;;;10.03;7.50;;;19.60;73.30;;;;;;5019805;28;20558;-78
2022/07/31 02:25:25;;;;;;;10.67;7.87;;;19.60;73.40;;;;;;5026977;28;20464;-78
2022/07/31 02:27:55;;;;;;;12.07;8.73;;;19.60;73.60;;;;;;5029232;28;20938;-78
2022/07/31 02:30:31;;;;;;;11.50;8.30;;;19.70;73.80;;;;;;5025820;28;20477;-77
2022/07/31 02:33:13;;;;;;;11.47;8.00;;;19.70;73.70;;;;;;5011494;28;20470;-78
2022/07/31 02:35:44;;;;;;;9.73;7.30;;;19.80;73.80;;;;;;5032879;28;20478;-79
2022/07/31 02:38:16;;;;;;;9.67;7.93;;;19.90;73.80;;;;;;5034738;28;20469;-78
2022/07/31 02:40:54;;;;;;;9.17;7.20;;;19.90;73.80;;;;;;5034668;28;20466;-77
2022/07/31 02:43:24;;;;;;;10.73;7.73;;;19.90;73.80;;;;;;5013161;28;20467;-78
2022/07/31 02:45:56;;;;;;;9.70;7.80;;;20.00;73.80;;;;;;5027506;28;20508;-78
2022/07/31 02:48:26;;;;;;;9.10;7.40;;;20.00;73.90;;;;;;5029891;28;20484;-78
2022/07/31 02:50:57;;;;;;;12.20;7.20;;;20.00;73.90;;;;;;5014545;28;20478;-79
2022/07/31 02:53:26;;;;;;;10.20;7.70;;;20.00;74.00;;;;;;5023538;28;21057;-78
2022/07/31 02:55:59;;;;;;;8.70;6.57;;;20.10;74.00;;;;;;5024370;28;20560;-78
2022/07/31 02:58:32;;;;;;;11.13;7.83;;;20.10;74.00;;;;;;5025112;28;20474;-78
2022/07/31 03:01:03;;;;;;;9.90;8.03;;;20.10;73.90;;;;;;5015313;28;20552;-78
2022/07/31 03:03:32;;;;;;;9.10;8.20;;;20.10;73.90;;;;;;5013904;28;20452;-78
2022/07/31 03:06:00;;;;;;;9.97;8.50;;;20.00;73.90;;;;;;5028109;28;20467;-78
2022/07/31 03:08:28;;;;;;;11.20;8.53;;;20.00;73.90;;;;;;5015825;28;20491;-78
2022/07/31 03:11:02;;;;;;;8.83;6.70;;;20.00;74.00;;;;;;5015030;28;20580;-78
2022/07/31 03:13:33;;;;;;;9.20;7.53;;;20.00;74.00;;;;;;5031032;28;21044;-78
2022/07/31 03:16:05;;;;;;;10.07;7.90;;;20.00;74.10;;;;;;5008274;28;21284;-78
2022/07/31 03:18:34;;;;;;;9.70;8.40;;;20.00;74.20;;;;;;5026867;28;20470;-78
2022/07/31 03:21:02;;;;;;;8.47;7.50;;;20.00;74.20;;;;;;5017620;28;21042;-78
2022/07/31 03:23:35;;;;;;;9.90;7.20;;;20.00;74.30;;;;;;5034176;28;20465;-78
2022/07/31 03:26:07;;;;;;;10.50;7.57;;;20.10;74.30;;;;;;5022160;28;20502;-78
2022/07/31 03:28:36;;;;;;;10.70;8.40;;;20.10;74.30;;;;;;5035853;28;21000;-78
2022/07/31 03:31:06;;;;;;;10.97;8.70;;;20.10;74.30;;;;;;5033042;28;21043;-78
2022/07/31 03:33:36;;;;;;;10.33;7.30;;;20.20;74.30;;;;;;5028093;28;20458;-78
2022/07/31 03:36:05;;;;;;;10.00;7.67;;;20.20;74.30;;;;;;5016308;28;20522;-77
2022/07/31 03:38:33;;;;;;;10.30;7.90;;;20.10;74.30;;;;;;5015115;28;20468;-77
2022/07/31 03:41:10;;;;;;;8.40;6.70;;;20.20;74.30;;;;;;5013698;28;20462;-77
2022/07/31 03:43:39;;;;;;;9.67;7.87;;;20.10;74.30;;;;;;5024127;28;21316;-78
2022/07/31 03:46:19;;;;;;;10.30;8.53;;;20.10;74.30;;;;;;5002681;28;20995;-78
2022/07/31 03:48:50;;;;;;;9.27;7.57;;;20.10;74.30;;;;;;5030393;28;20542;-78
2022/07/31 03:51:19;;;;;;;13.20;8.43;;;20.10;74.30;;;;;;5016330;28;20473;-78
2022/07/31 03:53:48;;;;;;;12.53;7.83;;;20.10;74.40;;;;;;5015286;28;20483;-78
2022/07/31 03:56:39;;;;;;;10.23;7.90;;;20.10;74.40;;;;;;5019680;28;20548;-78
2022/07/31 03:59:12;;;;;;;10.50;8.50;;;20.10;74.40;;;;;;5012520;28;20481;-78
2022/07/31 04:01:43;;;;;;;9.97;7.60;;;20.10;74.40;;;;;;5018296;28;20486;-78
2022/07/31 04:04:51;;;;;;;10.80;8.03;;;20.10;74.40;;;;;;5024628;28;20618;-78
2022/07/31 04:07:19;;;;;;;11.00;7.53;;;20.00;74.40;;;;;;5027175;28;20446;-78
2022/07/31 04:09:47;;;;;;;9.37;7.60;;;20.00;74.50;;;;;;5026405;28;20474;-78
2022/07/31 04:12:16;;;;;;;10.37;8.60;;;20.00;74.50;;;;;;5012461;28;20475;-78
2022/07/31 04:14:44;;;;;;;11.07;8.17;;;20.00;74.60;;;;;;5012508;28;20474;-79
2022/07/31 04:17:13;;;;;;;14.33;9.10;;;20.00;74.60;;;;;;5032891;28;21042;-78
2022/07/31 04:19:41;;;;;;;11.47;8.80;;;20.00;74.60;;;;;;5025440;28;20544;-78
2022/07/31 04:22:09;;;;;;;14.33;8.60;;;20.00;74.60;;;;;;5025065;28;20944;-78
2022/07/31 04:24:38;;;;;;;13.17;8.43;;;20.00;74.70;;;;;;5032016;28;20458;-78
2022/07/31 04:27:24;;;;;;;11.37;7.97;;;20.00;74.70;;;;;;5025742;28;20450;-78
2022/07/31 04:29:53;;;;;;;10.37;8.37;;;20.00;74.80;;;;;;5030212;28;20514;-77
2022/07/31 04:32:22;;;;;;;9.47;7.70;;;20.00;74.90;;;;;;5024232;28;20475;-78
2022/07/31 04:34:54;;;;;;;9.80;8.03;;;20.00;74.90;;;;;;5018048;28;20455;-78
2022/07/31 04:37:22;;;;;;;10.40;7.67;;;20.10;74.90;;;;;;5025084;28;21031;-78
2022/07/31 04:39:50;;;;;;;10.33;7.63;;;20.10;74.90;;;;;;5014034;28;20575;-78
2022/07/31 04:42:19;;;;;;;10.00;8.00;;;20.10;75.00;;;;;;5030177;28;20517;-77
2022/07/31 04:44:47;;;;;;;11.90;7.70;;;20.10;75.00;;;;;;5010986;28;20477;-78
2022/07/31 04:47:15;;;;;;;8.87;7.90;;;20.10;75.10;;;;;;5023460;28;21061;-77
2022/07/31 04:49:49;;;;;;;11.30;8.60;;;20.10;75.20;;;;;;5013965;28;20495;-78
2022/07/31 04:52:17;;;;;;;11.43;9.00;;;20.10;75.20;;;;;;5022765;28;20464;-78
2022/07/31 04:54:48;;;;;;;15.50;8.60;;;20.20;75.30;;;;;;5012089;28;20984;-78
2022/07/31 04:57:16;;;;;;;12.43;8.97;;;20.20;75.40;;;;;;5024699;28;21172;-78
2022/07/31 04:59:49;;;;;;;11.80;8.97;;;20.20;75.40;;;;;;5009693;28;20568;-78
2022/07/31 05:02:28;;;;;;;11.63;8.30;;;20.20;75.40;;;;;;5013889;28;20529;-78
2022/07/31 05:04:58;;;;;;;10.27;9.10;;;20.20;75.50;;;;;;5009857;28;20456;-78
2022/07/31 05:07:37;;;;;;;9.80;8.00;;;20.20;75.50;;;;;;5029373;28;20481;-78
2022/07/31 05:11:21;;;;;;;12.20;8.10;;;20.30;75.60;;;;;;5026737;28;20597;-78
2022/07/31 05:12:59;;;;;;;10.30;7.90;;;20.30;75.60;;;;;;5030845;28;20494;-78
2022/07/31 05:15:28;;;;;;;11.03;8.07;;;20.30;75.60;;;;;;5017948;28;20471;-77
2022/07/31 05:17:56;;;;;;;12.27;8.27;;;20.40;75.70;;;;;;5011981;28;20518;-78
2022/07/31 05:21:04;;;;;;;11.80;8.80;;;20.40;75.60;;;;;;5022046;28;20473;-78
2022/07/31 05:23:50;;;;;;;11.37;8.80;;;20.40;75.50;;;;;;5013535;28;20563;-78
2022/07/31 05:26:37;;;;;;;12.50;9.23;;;20.40;75.50;;;;;;5004824;28;20495;-78
2022/07/31 05:29:06;;;;;;;11.63;8.93;;;20.40;75.50;;;;;;5023909;28;20483;-79
2022/07/31 05:31:34;;;;;;;13.00;8.60;;;20.50;75.60;;;;;;5032949;28;20845;-78
2022/07/31 05:34:02;;;;;;;9.80;8.73;;;20.50;75.60;;;;;;5024681;28;20456;-78
2022/07/31 05:36:32;;;;;;;11.47;8.53;;;20.50;75.60;;;;;;5028830;28;20579;-78
2022/07/31 05:39:00;;;;;;;10.10;8.00;;;20.50;75.70;;;;;;5015183;28;20483;-78
2022/07/31 05:41:32;;;;;;;9.73;8.30;;;20.60;75.80;;;;;;5022855;28;20459;-78
2022/07/31 05:44:20;;;;;;;13.93;9.00;;;20.80;76.70;;;;;;5008025;28;20528;-77
2022/07/31 05:46:49;;;;;;;14.63;9.70;;;21.40;76.30;;;;;;5022619;28;20482;-78
2022/07/31 05:49:17;;;;;;;12.37;8.97;;;21.60;75.30;;;;;;5024252;28;20482;-78
2022/07/31 05:51:53;;;;;;;10.00;8.03;;;22.10;77.10;;;;;;5027945;28;20458;-78
2022/07/31 05:54:21;;;;;;;12.20;9.27;;;23.50;76.60;;;;;;5025504;28;20499;-78
2022/07/31 05:57:08;;;;;;;14.83;9.73;;;24.80;74.10;;;;;;5023535;28;20634;-78
2022/07/31 05:59:40;;;;;;;13.93;8.50;;;26.20;72.10;;;;;;5008124;28;20887;-78
2022/07/31 06:02:08;;;;;;;12.23;8.70;;;27.10;68.50;;;;;;5022121;28;20649;-78
2022/07/31 06:04:55;;;;;;;9.93;8.53;;;27.00;66.30;;;;;;5024773;28;20472;-78
2022/07/31 06:07:25;;;;;;;11.07;8.73;;;26.60;67.30;;;;;;5027992;28;20493;-78
2022/07/31 06:09:53;;;;;;;10.73;8.87;;;26.80;66.10;;;;;;5022631;28;20491;-78
2022/07/31 06:12:21;;;;;;;11.70;8.80;;;26.60;65.50;;;;;;5023479;28;20466;-78
2022/07/31 06:14:50;;;;;;;14.87;8.67;;;26.30;65.20;;;;;;5026318;28;20476;-78
2022/07/31 06:17:33;;;;;;;13.23;8.97;;;25.90;64.90;;;;;;5026335;28;20499;-78
2022/07/31 06:20:23;;;;;;;12.20;8.60;;;25.40;64.90;;;;;;5009736;28;21011;-78
2022/07/31 06:22:53;;;;;;;13.93;8.80;;;24.90;65.50;;;;;;5010990;28;21384;-77
2022/07/31 06:25:22;;;;;;;10.57;9.07;;;24.50;66.10;;;;;;5012642;28;21017;-79
2022/07/31 06:27:51;;;;;;;9.93;8.77;;;24.20;66.50;;;;;;5024995;28;21040;-79
2022/07/31 06:30:28;;;;;;;10.40;7.97;;;24.00;66.80;;;;;;5014117;28;20474;-78
2022/07/31 06:32:56;;;;;;;11.83;7.97;;;23.80;67.30;;;;;;5023354;28;20968;-78
2022/07/31 06:35:24;;;;;;;11.00;7.70;;;23.60;67.50;;;;;;5009316;28;21148;-77
2022/07/31 06:38:12;;;;;;;12.23;8.27;;;23.50;67.70;;;;;;5022474;28;20484;-77
2022/07/31 06:41:00;;;;;;;10.97;8.10;;;23.40;67.90;;;;;;5021959;28;21039;-76
2022/07/31 06:43:40;;;;;;;11.33;8.00;;;23.30;68.20;;;;;;5025946;28;20464;-77
2022/07/31 06:46:27;;;;;;;11.47;9.03;;;23.20;68.40;;;;;;5023180;28;20469;-77
2022/07/31 06:49:33;;;;;;;11.00;8.20;;;23.20;68.60;;;;;;5022878;28;20901;-77
2022/07/31 06:52:01;;;;;;;10.80;7.40;;;23.10;68.80;;;;;;5015151;28;20463;-78
2022/07/31 06:54:34;;;;;;;11.67;7.93;;;23.10;69.00;;;;;;5029360;28;20460;-78
2022/07/31 06:57:02;;;;;;;8.50;7.03;;;23.10;69.20;;;;;;5035905;28;20453;-77
2022/07/31 06:59:30;;;;;;;8.70;6.60;;;23.10;69.20;;;;;;5005191;28;20491;-78
2022/07/31 07:02:07;;;;;;;10.07;7.30;;;23.10;69.20;;;;;;5026223;28;20479;-78
2022/07/31 07:04:36;;;;;;;8.23;6.80;;;23.10;69.30;;;;;;5039222;28;20469;-77
2022/07/31 07:07:24;;;;;;;8.73;7.03;;;23.20;69.30;;;;;;5021000;28;20549;-78
2022/07/31 07:10:00;;;;;;;9.93;7.03;;;23.20;69.30;;;;;;5013304;28;20474;-78
2022/07/31 07:12:48;;;;;;;7.30;6.00;;;23.20;69.40;;;;;;5032963;28;20463;-78
2022/07/31 07:15:16;;;;;;;8.10;6.33;;;23.20;69.30;;;;;;5022095;28;20459;-77
2022/07/31 07:17:44;;;;;;;11.23;6.40;;;23.20;69.20;;;;;;5020796;28;20469;-77
2022/07/31 07:20:17;;;;;;;9.80;5.90;;;23.20;69.10;;;;;;5034057;28;20483;-78
2022/07/31 07:22:45;;;;;;;9.93;5.97;;;23.20;69.10;;;;;;5023563;28;20475;-78
2022/07/31 07:25:20;;;;;;;8.70;5.83;;;23.20;68.90;;;;;;5016333;28;21028;-78
2022/07/31 07:27:50;;;;;;;7.67;5.33;;;23.20;68.80;;;;;;5036251;28;20466;-78
2022/07/31 07:30:18;;;;;;;9.23;5.20;;;23.20;68.60;;;;;;5022203;28;21815;-78
2022/07/31 07:32:46;;;;;;;10.83;5.47;;;23.20;68.30;;;;;;5025444;28;20469;-78
2022/07/31 07:35:15;;;;;;;8.03;5.60;;;23.20;68.20;;;;;;5014926;28;20547;-78
2022/07/31 07:37:52;;;;;;;8.93;5.87;;;23.20;68.20;;;;;;5026867;28;20464;-77
2022/07/31 07:40:21;;;;;;;8.63;5.80;;;23.20;68.00;;;;;;5024048;28;20533;-78
2022/07/31 07:42:49;;;;;;;8.90;5.50;;;23.20;68.10;;;;;;5026348;28;20468;-78
2022/07/31 07:45:18;;;;;;;10.40;5.97;;;23.10;68.00;;;;;;5019684;28;20462;-78
2022/07/31 07:47:47;;;;;;;8.03;5.83;;;23.10;68.10;;;;;;5034945;28;20511;-77
2022/07/31 07:50:40;;;;;;;8.77;5.87;;;23.10;68.10;;;;;;5027114;28;20507;-78
2022/07/31 07:53:43;;;;;;;9.20;6.80;;;23.10;68.10;;;;;;4953313;28;20519;-78
2022/07/31 07:56:31;;;;;;;10.30;5.73;;;23.10;68.10;;;;;;5019629;28;20948;-78
2022/07/31 07:59:25;;;;;;;8.07;5.37;;;23.10;68.10;;;;;;5029101;28;20492;-78
2022/07/31 08:02:13;;;;;;;9.33;6.77;;;23.20;68.10;;;;;;5023523;28;20484;-77
2022/07/31 08:04:41;;;;;;;12.83;6.80;;;23.20;68.00;;;;;;5007332;28;21148;-78
2022/07/31 08:07:14;;;;;;;8.47;6.03;;;23.20;68.00;;;;;;5024463;28;20459;-79
2022/07/31 08:09:42;;;;;;;8.87;5.77;;;23.20;68.10;;;;;;5011403;28;20491;-78
2022/07/31 08:12:34;;;;;;;10.97;5.90;;;23.20;68.10;;;;;;5021837;28;20478;-78
2022/07/31 08:15:06;;;;;;;12.27;6.10;;;23.20;68.00;;;;;;5025769;28;20467;-78
2022/07/31 08:17:37;;;;;;;9.70;5.93;;;23.30;68.00;;;;;;5004366;28;20580;-78
2022/07/31 08:20:07;;;;;;;7.27;5.27;;;23.30;68.00;;;;;;5009619;28;21032;-78
2022/07/31 08:22:35;;;;;;;7.23;4.87;;;23.30;67.80;;;;;;4986638;28;20475;-78
2022/07/31 08:25:04;;;;;;;7.70;5.40;;;23.40;67.60;;;;;;4997886;28;20459;-78
2022/07/31 08:27:34;;;;;;;10.63;5.13;;;23.40;67.50;;;;;;5005300;28;20569;-78
2022/07/31 08:30:08;;;;;;;8.23;5.83;;;23.50;67.40;;;;;;4994770;28;20471;-78
2022/07/31 08:32:37;;;;;;;10.20;5.07;;;23.60;67.20;;;;;;4992191;28;20491;-78
2022/07/31 08:35:06;;;;;;;9.53;5.37;;;23.60;67.00;;;;;;5003451;28;20482;-79
2022/07/31 08:37:34;;;;;;;7.20;5.83;;;23.60;66.90;;;;;;4992943;28;21023;-78
2022/07/31 08:40:24;;;;;;;8.50;4.57;;;23.70;66.80;;;;;;5009488;28;20986;-78
2022/07/31 08:42:55;;;;;;;7.50;4.63;;;23.70;66.70;;;;;;4989672;28;20464;-78
2022/07/31 08:45:28;;;;;;;7.57;4.93;;;23.80;66.40;;;;;;5011446;28;20511;-78
2022/07/31 08:48:08;;;;;;;9.67;5.97;;;23.90;66.20;;;;;;5010174;28;20458;-78
2022/07/31 08:50:46;;;;;;;8.53;4.90;;;23.90;66.10;;;;;;4992633;28;20553;-78
2022/07/31 08:53:49;;;;;;;6.97;4.93;;;24.00;65.80;;;;;;5004848;28;20475;-78
2022/07/31 08:56:20;;;;;;;9.17;5.43;;;24.10;65.50;;;;;;5009010;28;20462;-78
2022/07/31 08:58:49;;;;;;;9.57;5.03;;;24.10;65.40;;;;;;4992382;28;21211;-78
2022/07/31 09:01:17;;;;;;;8.57;5.43;;;24.20;65.20;;;;;;5009305;28;21081;-78
2022/07/31 09:03:45;;;;;;;7.13;4.27;;;24.20;64.80;;;;;;5011383;28;21123;-76
2022/07/31 09:06:15;;;;;;;11.63;4.97;;;24.20;64.70;;;;;;5004014;28;21203;-76
2022/07/31 09:08:43;;;;;;;8.10;4.93;;;24.30;64.50;;;;;;5004486;28;20486;-78
2022/07/31 09:11:12;;;;;;;8.40;4.90;;;24.40;64.30;;;;;;4996496;28;20564;-76
2022/07/31 09:13:54;;;;;;;7.80;4.40;;;24.50;64.10;;;;;;5003586;28;20882;-76
2022/07/31 09:16:46;;;;;;;9.77;4.63;;;24.50;63.90;;;;;;4986971;28;20491;-76
2022/07/31 09:19:15;;;;;;;9.63;4.47;;;24.50;63.70;;;;;;4990280;28;20495;-76
2022/07/31 09:22:20;;;;;;;9.13;4.37;;;24.60;63.50;;;;;;5008868;28;20459;-76
2022/07/31 09:24:49;;;;;;;6.50;3.83;;;24.70;63.20;;;;;;4992590;28;20465;-76
2022/07/31 09:27:17;;;;;;;7.73;3.70;;;24.80;62.60;;;;;;4993214;28;20892;-76
2022/07/31 09:29:48;;;;;;;7.70;3.73;;;24.80;62.30;;;;;;5006396;28;21048;-76
2022/07/31 09:32:31;;;;;;;6.77;3.40;;;24.90;62.10;;;;;;5011751;28;21191;-75
2022/07/31 09:35:10;;;;;;;6.37;3.33;;;24.90;61.50;;;;;;5015061;28;20458;-76
2022/07/31 09:37:39;;;;;;;7.63;3.50;;;25.00;61.00;;;;;;5026383;28;20585;-76
2022/07/31 09:40:35;;;;;;;6.90;3.23;;;25.00;60.90;;;;;;5025560;28;20478;-77
2022/07/31 09:43:41;;;;;;;7.50;3.30;;;25.10;60.60;;;;;;5023940;28;20475;-76
2022/07/31 09:46:20;;;;;;;6.40;3.33;;;25.10;60.40;;;;;;5015513;28;20473;-76
2022/07/31 09:48:51;;;;;;;9.70;3.63;;;25.20;60.30;;;;;;5010124;28;20486;-76
2022/07/31 09:51:37;;;;;;;8.83;3.07;;;25.30;60.10;;;;;;5011187;28;20467;-77
2022/07/31 09:54:05;;;;;;;5.20;3.07;;;25.30;59.90;;;;;;5024491;28;20467;-76
2022/07/31 09:57:11;;;;;;;7.27;3.00;;;25.40;59.90;;;;;;5009530;28;20483;-76
2022/07/31 09:59:45;;;;;;;4.70;2.67;;;25.50;59.60;;;;;;5024681;28;20514;-76
2022/07/31 10:02:16;;;;;;;4.90;2.50;;;25.60;59.30;;;;;;5009285;28;20571;-76
2022/07/31 10:04:49;;;;;;;4.90;2.70;;;25.70;59.00;;;;;;5015698;28;20463;-76
2022/07/31 10:07:19;;;;;;;6.50;3.73;;;25.80;58.50;;;;;;5029437;28;20445;-76
2022/07/31 10:10:04;;;;;;;7.03;3.43;;;25.80;58.30;;;;;;5015291;28;20523;-76
2022/07/31 10:12:48;;;;;;;5.73;3.50;;;25.80;58.20;;;;;;5004820;28;20480;-76
2022/07/31 10:15:19;;;;;;;6.17;3.40;;;25.80;58.10;;;;;;5024916;28;20474;-76
2022/07/31 10:18:01;;;;;;;6.23;3.60;;;25.80;58.10;;;;;;5030119;28;21225;-76
2022/07/31 10:20:51;;;;;;;5.20;3.00;;;25.90;58.10;;;;;;5018998;28;20516;-76
2022/07/31 10:23:33;;;;;;;7.23;3.50;;;25.90;57.90;;;;;;5010725;28;20971;-76
2022/07/31 10:26:04;;;;;;;6.03;3.30;;;25.90;57.60;;;;;;5005915;28;21137;-76
2022/07/31 10:28:33;;;;;;;5.90;2.80;;;25.90;57.40;;;;;;5028476;28;20487;-77
2022/07/31 10:31:01;;;;;;;4.80;2.57;;;25.90;57.20;;;;;;5032247;28;20476;-77
2022/07/31 10:33:46;;;;;;;4.40;2.20;;;25.90;57.30;;;;;;5018952;28;20528;-77
2022/07/31 10:36:35;;;;;;;5.40;2.60;;;26.00;57.00;;;;;;5029743;28;20487;-77
2022/07/31 10:39:43;;;;;;;5.47;2.60;;;26.00;57.00;;;;;;5021337;28;20489;-77
2022/07/31 10:42:35;;;;;;;5.13;2.43;;;26.10;56.60;;;;;;5016562;28;20461;-77
2022/07/31 10:45:07;;;;;;;4.90;2.43;;;26.20;56.40;;;;;;5032130;28;20488;-77
2022/07/31 10:47:55;;;;;;;5.23;2.43;;;26.20;56.30;;;;;;5031242;28;20567;-77
2022/07/31 10:50:49;;;;;;;9.37;2.30;;;26.20;56.20;;;;;;5022762;28;20523;-77
2022/07/31 10:53:21;;;;;;;4.70;2.73;;;26.30;56.00;;;;;;5010141;28;20505;-77
2022/07/31 10:56:13;;;;;;;4.87;2.60;;;26.30;56.00;;;;;;5007830;28;20462;-77
2022/07/31 10:59:06;;;;;;;5.63;2.40;;;26.40;55.60;;;;;;5021497;28;20479;-77
2022/07/31 11:01:57;;;;;;;6.80;2.47;;;26.40;55.60;;;;;;5027655;28;20839;-77
2022/07/31 11:04:45;;;;;;;4.43;2.13;;;26.40;55.60;;;;;;5027964;28;20508;-77
2022/07/31 11:07:20;;;;;;;5.27;2.47;;;26.50;55.40;;;;;;5025315;28;21032;-77
2022/07/31 11:10:17;;;;;;;5.50;2.30;;;26.50;55.20;;;;;;5013841;28;20466;-77
2022/07/31 11:13:22;;;;;;;6.00;2.53;;;26.60;54.90;;;;;;4970976;28;21007;-77
2022/07/31 11:16:07;;;;;;;6.33;2.20;;;26.70;54.80;;;;;;5008963;28;20992;-77
2022/07/31 11:18:40;;;;;;;5.40;2.00;;;26.80;54.60;;;;;;5024885;28;21468;-77
2022/07/31 11:21:10;;;;;;;4.93;2.40;;;26.90;54.50;;;;;;5026147;28;20488;-77
2022/07/31 11:23:59;;;;;;;6.03;2.43;;;27.00;54.40;;;;;;5023539;28;20566;-77
2022/07/31 11:26:32;;;;;;;5.60;1.97;;;27.10;53.80;;;;;;5027213;28;21052;-77
2022/07/31 11:29:10;;;;;;;7.33;2.40;;;27.20;53.80;;;;;;5026015;28;20486;-77
2022/07/31 11:32:11;;;;;;;4.63;2.13;;;27.40;53.60;;;;;;5025669;28;20894;-77
2022/07/31 11:34:52;;;;;;;5.20;2.50;;;27.50;53.40;;;;;;5027456;28;20458;-77
2022/07/31 11:37:22;;;;;;;4.10;1.87;;;27.70;53.20;;;;;;5025542;28;20470;-77
2022/07/31 11:39:53;;;;;;;5.40;2.50;;;27.70;53.10;;;;;;5030375;28;20501;-78
2022/07/31 11:42:25;;;;;;;5.20;2.40;;;27.80;53.00;;;;;;5026526;28;20483;-77
2022/07/31 11:45:02;;;;;;;4.33;2.37;;;27.80;52.80;;;;;;5026176;28;20554;-77
2022/07/31 11:47:50;;;;;;;6.27;2.60;;;27.80;52.80;;;;;;5026187;28;20468;-77
2022/07/31 11:50:42;;;;;;;7.47;2.40;;;27.70;52.50;;;;;;5023367;28;20466;-77
2022/07/31 11:53:10;;;;;;;5.53;2.70;;;27.70;52.80;;;;;;5027388;28;20465;-77
2022/07/31 11:55:48;;;;;;;6.00;2.63;;;27.70;52.90;;;;;;5026180;28;20455;-77
2022/07/31 11:58:18;;;;;;;5.73;2.60;;;27.80;52.90;;;;;;5023602;28;20463;-77
2022/07/31 12:00:50;;;;;;;5.77;2.80;;;27.80;52.90;;;;;;5023482;28;20482;-77
2022/07/31 12:03:20;;;;;;;6.00;2.30;;;27.80;52.80;;;;;;5026793;28;20455;-77
2022/07/31 12:05:51;;;;;;;5.80;2.67;;;27.90;52.80;;;;;;5026481;28;20485;-77
2022/07/31 12:08:19;;;;;;;4.93;2.57;;;27.90;52.70;;;;;;5014566;28;20486;-77
2022/07/31 12:10:52;;;;;;;7.13;2.63;;;27.90;52.70;;;;;;5026781;28;20470;-77
2022/07/31 12:13:21;;;;;;;6.37;2.33;;;27.90;52.70;;;;;;5026275;28;20482;-77
2022/07/31 12:15:58;;;;;;;5.20;2.57;;;28.00;52.60;;;;;;5005943;28;20475;-77
2022/07/31 12:18:27;;;;;;;3.97;2.03;;;28.00;52.70;;;;;;5025435;28;20467;-77
2022/07/31 12:20:57;;;;;;;7.30;2.23;;;28.00;52.50;;;;;;5027571;28;20482;-77
2022/07/31 12:23:26;;;;;;;7.03;2.40;;;28.00;52.60;;;;;;5027279;28;20495;-77
2022/07/31 12:26:12;;;;;;;4.93;2.80;;;28.00;52.60;;;;;;5026326;28;20462;-77
2022/07/31 12:28:40;;;;;;;6.43;2.27;;;27.90;52.70;;;;;;5025908;28;20543;-77
2022/07/31 12:31:08;;;;;;;5.53;2.23;;;28.00;52.60;;;;;;5023808;28;20471;-77
2022/07/31 12:37:51;;;;;;;4.30;2.20;;;27.90;52.60;;;;;;5025363;28;20486;-78
2022/07/31 12:40:24;;;;;;;6.60;2.40;;;27.90;52.70;;;;;;5025026;28;20473;-78
2022/07/31 12:42:54;;;;;;;5.47;2.30;;;27.90;52.80;;;;;;5022525;28;20546;-78
2022/07/31 12:46:15;;;;;;;7.43;2.77;;;27.90;52.80;;;;;;5022630;28;20476;-78
2022/07/31 12:48:43;;;;;;;4.77;2.60;;;27.90;52.50;;;;;;5022707;28;20489;-78
2022/07/31 12:51:13;;;;;;;5.10;2.30;;;27.80;52.70;;;;;;5025912;28;20460;-78
2022/07/31 12:53:41;;;;;;;4.67;2.30;;;27.80;52.80;;;;;;5026415;28;20462;-78
2022/07/31 12:56:11;;;;;;;5.00;2.33;;;27.80;52.80;;;;;;5025295;28;20471;-78
2022/07/31 12:58:40;;;;;;;4.67;2.00;;;27.80;53.00;;;;;;5024701;28;20503;-78
2022/07/31 13:01:08;;;;;;;5.63;2.67;;;27.80;53.00;;;;;;5021787;28;20503;-78
2022/07/31 13:03:36;;;;;;;5.20;2.87;;;27.80;53.00;;;;;;5025002;28;20523;-78
2022/07/31 13:06:13;;;;;;;5.67;2.40;;;27.80;53.00;;;;;;5026971;28;20452;-78
2022/07/31 13:08:42;;;;;;;5.27;2.77;;;27.70;53.00;;;;;;5026215;28;20486;-78
2022/07/31 13:11:10;;;;;;;4.27;2.23;;;27.80;52.90;;;;;;5022417;28;20462;-78
2022/07/31 13:13:40;;;;;;;4.43;2.20;;;27.70;52.90;;;;;;5025612;28;20471;-78
2022/07/31 13:16:08;;;;;;;6.00;2.40;;;27.70;52.90;;;;;;5031661;28;20561;-78
2022/07/31 13:18:36;;;;;;;6.00;2.40;;;27.70;53.00;;;;;;5029447;28;20479;-78
2022/07/31 13:21:05;;;;;;;9.03;2.27;;;27.70;53.00;;;;;;5027923;28;20551;-78
2022/07/31 13:23:33;;;;;;;5.07;2.43;;;27.70;52.80;;;;;;5028222;28;20465;-77
2022/07/31 13:26:01;;;;;;;9.40;2.77;;;27.80;52.80;;;;;;5028832;28;20468;-78